createdAt,value
2023-08-29T00:00:50.510Z,47.10
2023-08-29T00:03:38.984Z,46.70
2023-08-29T00:06:27.601Z,46.90
2023-08-29T00:09:15.888Z,47.10
2023-08-29T00:12:04.712Z,47.80
2023-08-29T00:14:54.508Z,48.30
2023-08-29T00:17:44.784Z,47.50
2023-08-29T00:20:33.849Z,46.80
2023-08-29T00:23:22.291Z,48.20
2023-08-29T00:26:10.651Z,47.50
2023-08-29T00:28:59.119Z,47.10
2023-08-29T00:31:49.618Z,47.20
2023-08-29T00:34:38.049Z,47.80
2023-08-29T00:37:26.424Z,49.00
2023-08-29T00:40:14.888Z,48.90
2023-08-29T00:43:04.071Z,48.20
2023-08-29T00:45:53.594Z,47.20
2023-08-29T00:48:44.080Z,47.30
2023-08-29T00:51:32.422Z,47.20
2023-08-29T00:54:22.448Z,47.50
2023-08-29T00:57:10.939Z,47.60
2023-08-29T00:59:59.311Z,47.60
2023-08-29T01:02:48.295Z,49.60
2023-08-29T01:05:38.076Z,50.00
2023-08-29T01:08:27.399Z,48.80
2023-08-29T01:11:22.349Z,47.10
2023-08-29T01:14:18.015Z,46.40
2023-08-29T01:17:10.384Z,46.50
2023-08-29T01:19:59.947Z,48.20
2023-08-29T01:23:13.184Z,49.30
2023-08-29T01:26:14.749Z,50.10
2023-08-29T01:29:04.952Z,48.30
2023-08-29T01:31:53.570Z,48.40
2023-08-29T01:34:43.341Z,48.90
2023-08-29T01:37:31.632Z,48.80
2023-08-29T01:40:20.007Z,49.30
2023-08-29T01:43:09.693Z,48.50
2023-08-29T01:45:58.214Z,48.20
2023-08-29T01:48:47.825Z,47.80
2023-08-29T01:51:36.281Z,46.20
2023-08-29T01:54:25.222Z,45.40
2023-08-29T01:57:16.069Z,46.00
2023-08-29T02:00:08.527Z,45.90
2023-08-29T02:03:03.283Z,48.40
2023-08-29T02:05:51.585Z,50.00
2023-08-29T02:08:40.122Z,49.80
2023-08-29T02:11:28.600Z,50.50
2023-08-29T02:14:20.033Z,52.30
2023-08-29T02:17:10.039Z,52.40
2023-08-29T02:19:59.560Z,53.30
2023-08-29T02:22:47.862Z,54.30
2023-08-29T02:25:36.145Z,54.00
2023-08-29T02:28:24.517Z,52.40
2023-08-29T02:31:14.176Z,51.50
2023-08-29T02:34:03.859Z,50.80
2023-08-29T02:36:52.181Z,49.70
2023-08-29T02:39:41.656Z,49.30
2023-08-29T02:42:29.941Z,49.20
2023-08-29T02:45:18.359Z,48.40
2023-08-29T02:48:07.910Z,49.20
2023-08-29T02:50:58.077Z,49.80
2023-08-29T02:53:46.392Z,50.80
2023-08-29T02:56:34.663Z,51.60
2023-08-29T02:59:23.012Z,51.50
2023-08-29T03:02:11.407Z,53.00
2023-08-29T03:04:59.808Z,52.90
2023-08-29T03:07:49.458Z,52.60
2023-08-29T03:10:38.122Z,52.00
2023-08-29T03:13:26.613Z,52.00
2023-08-29T03:16:18.129Z,51.40
2023-08-29T03:19:08.337Z,50.50
2023-08-29T03:21:57.163Z,49.60
2023-08-29T03:24:48.536Z,50.10
2023-08-29T03:27:36.932Z,49.00
2023-08-29T03:30:27.314Z,49.70
2023-08-29T03:33:16.786Z,51.30
2023-08-29T03:36:05.773Z,52.90
2023-08-29T03:38:54.877Z,52.10
2023-08-29T03:41:44.587Z,51.60
2023-08-29T03:44:33.031Z,49.10
2023-08-29T03:47:21.370Z,48.60
2023-08-29T03:50:10.664Z,47.90
2023-08-29T03:52:59.454Z,47.80
2023-08-29T03:55:48.482Z,46.90
2023-08-29T03:58:38.335Z,47.50
2023-08-29T04:01:27.533Z,47.70
2023-08-29T04:04:16.303Z,49.10
2023-08-29T04:07:05.799Z,50.70
2023-08-29T04:09:54.593Z,50.00
2023-08-29T04:12:43.228Z,49.10
2023-08-29T04:15:33.276Z,48.40
2023-08-29T04:18:21.814Z,47.50
2023-08-29T04:21:10.179Z,47.20
2023-08-29T04:23:58.581Z,47.40
2023-08-29T04:26:47.333Z,46.90
2023-08-29T04:29:35.761Z,47.20
2023-08-29T04:32:25.578Z,48.20
2023-08-29T04:35:13.862Z,47.60
2023-08-29T04:38:02.194Z,47.30
2023-08-29T04:40:51.494Z,47.80
2023-08-29T04:43:41.002Z,47.40
2023-08-29T04:46:29.601Z,47.10
2023-08-29T04:49:19.527Z,47.30
2023-08-29T04:52:08.105Z,48.60
2023-08-29T04:54:56.849Z,48.40
2023-08-29T04:57:45.282Z,48.90
2023-08-29T05:00:33.629Z,50.30
2023-08-29T05:03:23.357Z,49.00
2023-08-29T05:06:13.093Z,49.60
2023-08-29T05:09:01.459Z,48.70
2023-08-29T05:11:49.953Z,48.10
2023-08-29T05:14:38.466Z,48.90
2023-08-29T05:17:27.962Z,48.30
2023-08-29T05:20:17.023Z,48.30
2023-08-29T05:23:07.179Z,48.20
2023-08-29T05:25:58.366Z,49.10
2023-08-29T05:28:46.707Z,49.50
2023-08-29T05:31:35.446Z,49.40
2023-08-29T05:34:23.973Z,50.20
2023-08-29T05:37:12.605Z,50.30
2023-08-29T05:40:02.986Z,49.30
2023-08-29T05:42:51.333Z,48.90
2023-08-29T05:45:43.441Z,48.70
2023-08-29T05:48:31.838Z,48.80
2023-08-29T05:51:20.412Z,50.20
2023-08-29T05:54:08.818Z,51.40
2023-08-29T05:56:58.504Z,51.60
2023-08-29T05:59:46.950Z,51.60
2023-08-29T06:02:35.554Z,51.60
2023-08-29T06:05:24.037Z,50.20
2023-08-29T06:08:19.293Z,49.50
2023-08-29T06:11:08.504Z,49.50
2023-08-29T06:13:58.260Z,50.70
2023-08-29T06:16:46.774Z,50.00
2023-08-29T06:19:35.536Z,52.00
2023-08-29T06:22:23.977Z,51.80
2023-08-29T06:25:12.684Z,51.70
2023-08-29T06:28:01.135Z,51.80
2023-08-29T06:30:51.041Z,51.80
2023-08-29T06:33:40.606Z,51.50
2023-08-29T06:36:29.268Z,51.40
2023-08-29T06:39:18.379Z,51.50
2023-08-29T06:42:07.389Z,51.90
2023-08-29T06:44:58.831Z,52.40
2023-08-29T06:47:48.644Z,53.10
2023-08-29T06:50:37.170Z,53.00
2023-08-29T06:53:27.751Z,53.20
2023-08-29T06:56:16.151Z,55.20
2023-08-29T06:59:04.892Z,57.50
2023-08-29T07:01:53.973Z,58.10
2023-08-29T07:04:43.818Z,58.00
2023-08-29T07:07:32.292Z,57.00
2023-08-29T07:10:21.041Z,56.90
2023-08-29T07:13:09.484Z,57.20
2023-08-29T07:15:57.828Z,57.60
2023-08-29T07:18:47.447Z,57.10
2023-08-29T07:21:37.159Z,59.30
2023-08-29T07:24:25.590Z,59.70
2023-08-29T07:27:13.933Z,58.00
2023-08-29T07:30:02.308Z,57.00
2023-08-29T07:32:50.859Z,54.40
2023-08-29T07:35:39.567Z,52.40
2023-08-29T07:38:29.311Z,53.40
2023-08-29T07:41:17.685Z,54.10
2023-08-29T07:44:06.888Z,55.80
2023-08-29T07:47:13.416Z,55.50
2023-08-29T07:50:03.804Z,55.40
2023-08-29T07:52:52.234Z,53.00
2023-08-29T07:55:43.110Z,53.10
2023-08-29T07:58:31.493Z,52.10
2023-08-29T08:01:20.019Z,50.50
2023-08-29T08:04:08.463Z,51.10
2023-08-29T08:06:56.878Z,49.20
2023-08-29T08:09:45.255Z,49.40
2023-08-29T08:12:36.033Z,50.50
2023-08-29T08:15:24.411Z,49.10
2023-08-29T08:18:12.849Z,48.30
2023-08-29T08:21:01.260Z,46.60
2023-08-29T08:23:50.135Z,43.50
2023-08-29T08:26:38.594Z,44.80
2023-08-29T08:29:28.443Z,45.50
2023-08-29T08:32:16.873Z,46.20
2023-08-29T08:35:07.970Z,46.30
2023-08-29T08:37:56.660Z,46.30
2023-08-29T08:40:45.186Z,46.80
2023-08-29T08:43:33.844Z,46.50
2023-08-29T08:46:24.345Z,46.60
2023-08-29T08:49:14.118Z,46.20
2023-08-29T08:52:04.725Z,47.70
2023-08-29T08:54:53.890Z,48.20
2023-08-29T08:57:44.158Z,47.90
2023-08-29T09:00:33.458Z,48.40
2023-08-29T09:03:23.280Z,47.70
2023-08-29T09:06:13.874Z,46.60
2023-08-29T09:09:17.083Z,44.50
2023-08-29T09:12:06.045Z,43.70
2023-08-29T09:14:55.764Z,42.50
2023-08-29T09:17:48.751Z,40.00
2023-08-29T09:20:38.652Z,39.60
2023-08-29T09:23:30.758Z,41.60
2023-08-29T09:26:19.322Z,40.70
2023-08-29T09:29:18.962Z,40.70
2023-08-29T09:32:14.569Z,40.90
2023-08-29T09:35:03.747Z,39.20
2023-08-29T09:37:54.594Z,39.90
2023-08-29T09:40:50.732Z,38.50
2023-08-29T09:43:48.137Z,38.70
2023-08-29T09:46:37.012Z,37.30
2023-08-29T09:49:32.555Z,38.00
2023-08-29T09:52:22.474Z,37.90
2023-08-29T09:55:15.569Z,39.10
2023-08-29T09:58:06.170Z,38.40
2023-08-29T10:00:55.890Z,40.10
2023-08-29T10:03:44.705Z,38.30
2023-08-29T10:06:33.232Z,37.10
2023-08-29T10:09:21.788Z,37.40
2023-08-29T10:12:11.793Z,38.00
2023-08-29T10:15:01.607Z,37.50
2023-08-29T10:17:51.050Z,38.20
2023-08-29T10:20:44.219Z,38.00
2023-08-29T10:23:33.930Z,37.50
2023-08-29T10:26:26.665Z,38.20
2023-08-29T10:29:17.992Z,37.90
2023-08-29T10:32:08.085Z,36.50
2023-08-29T10:34:56.736Z,37.90
2023-08-29T10:37:45.378Z,36.40
2023-08-29T10:40:37.541Z,35.40
2023-08-29T10:43:27.168Z,35.90
2023-08-29T10:46:17.981Z,38.20
2023-08-29T10:49:12.749Z,37.00
2023-08-29T10:52:11.197Z,36.40
2023-08-29T10:55:05.063Z,37.10
2023-08-29T10:57:54.755Z,36.00
2023-08-29T11:00:56.196Z,35.50
2023-08-29T11:03:51.187Z,37.00
2023-08-29T11:06:53.617Z,36.10
2023-08-29T11:09:43.366Z,37.40
2023-08-29T11:12:33.074Z,39.10
2023-08-29T11:15:21.452Z,37.50
2023-08-29T11:18:23.693Z,34.40
2023-08-29T11:21:13.391Z,33.50
2023-08-29T11:24:15.867Z,31.80
2023-08-29T11:27:05.236Z,31.70
2023-08-29T11:30:11.154Z,31.90
2023-08-29T11:33:05.097Z,31.70
2023-08-29T11:35:53.402Z,30.70
2023-08-29T11:38:45.297Z,32.40
2023-08-29T11:41:40.036Z,29.70
2023-08-29T11:45:41.170Z,29.80
2023-08-29T11:47:50.916Z,30.70
2023-08-29T11:50:41.720Z,30.90
2023-08-29T11:53:32.062Z,29.00
2023-08-29T11:56:22.673Z,27.60
2023-08-29T11:59:14.342Z,29.90
2023-08-29T12:02:02.716Z,26.60
2023-08-29T12:04:57.404Z,25.20
2023-08-29T12:07:46.453Z,25.50
2023-08-29T12:10:34.768Z,25.80
2023-08-29T12:13:24.532Z,25.20
2023-08-29T12:16:17.278Z,25.20
2023-08-29T12:19:07.481Z,28.60
2023-08-29T12:21:56.029Z,26.10
2023-08-29T12:24:54.592Z,28.00
2023-08-29T12:27:45.203Z,26.90
2023-08-29T12:30:35.743Z,25.90
2023-08-29T12:33:24.282Z,24.00
2023-08-29T12:36:12.568Z,25.60
2023-08-29T12:39:00.834Z,25.70
2023-08-29T12:41:49.158Z,25.70
2023-08-29T12:44:37.506Z,25.70
2023-08-29T12:47:27.195Z,23.60
2023-08-29T12:50:18.103Z,25.10
2023-08-29T12:53:06.640Z,24.10
2023-08-29T12:55:55.070Z,23.40
2023-08-29T12:58:43.895Z,24.10
2023-08-29T13:01:33.847Z,24.50
2023-08-29T13:04:23.540Z,24.80
2023-08-29T13:07:11.839Z,25.40
2023-08-29T13:10:00.309Z,25.20
2023-08-29T13:12:48.710Z,23.70
2023-08-29T13:15:48.939Z,23.00
2023-08-29T13:18:39.731Z,23.50
2023-08-29T13:21:29.569Z,22.60
2023-08-29T13:24:19.486Z,25.30
2023-08-29T13:27:09.468Z,25.20
2023-08-29T13:29:58.012Z,23.90
2023-08-29T13:32:46.403Z,23.20
2023-08-29T13:35:34.773Z,22.80
2023-08-29T13:38:24.537Z,25.40
2023-08-29T13:41:13.177Z,22.60
2023-08-29T13:44:01.518Z,26.20
2023-08-29T13:46:49.894Z,23.10
2023-08-29T13:49:38.227Z,21.50
2023-08-29T13:52:26.588Z,23.90
2023-08-29T13:55:16.280Z,22.80
2023-08-29T13:58:05.389Z,25.30
2023-08-29T14:00:54.625Z,23.90
2023-08-29T14:03:43.389Z,25.00
2023-08-29T14:06:31.799Z,23.80
2023-08-29T14:09:20.215Z,24.30
2023-08-29T14:12:10.612Z,25.10
2023-08-29T14:14:59.007Z,24.20
2023-08-29T14:17:47.357Z,24.20
2023-08-29T14:20:42.322Z,24.70
2023-08-29T14:23:30.846Z,25.50
2023-08-29T14:26:19.161Z,25.30
2023-08-29T14:29:08.981Z,24.40
2023-08-29T14:31:57.340Z,24.70
2023-08-29T14:34:45.612Z,24.60
2023-08-29T14:37:33.978Z,25.20
2023-08-29T14:40:26.240Z,26.70
2023-08-29T14:43:14.542Z,26.80
2023-08-29T14:46:05.123Z,26.90
2023-08-29T14:48:53.610Z,25.70
2023-08-29T14:51:41.883Z,28.40
2023-08-29T14:54:32.146Z,30.00
2023-08-29T14:57:20.486Z,30.80
2023-08-29T15:00:10.718Z,31.40
2023-08-29T15:03:00.566Z,30.70
2023-08-29T15:05:55.337Z,28.70
2023-08-29T15:08:44.202Z,29.90
2023-08-29T15:11:32.469Z,29.20
2023-08-29T15:14:20.773Z,28.90
2023-08-29T15:17:09.131Z,29.20
2023-08-29T15:19:59.238Z,29.50
2023-08-29T15:22:47.556Z,29.90
2023-08-29T15:25:35.855Z,29.80
2023-08-29T15:28:29.672Z,30.80
2023-08-29T15:31:18.028Z,31.20
2023-08-29T15:34:08.599Z,30.30
2023-08-29T15:36:59.306Z,31.20
2023-08-29T15:39:47.740Z,32.50
2023-08-29T15:42:38.942Z,33.90
2023-08-29T15:45:27.287Z,33.60
2023-08-29T15:48:18.870Z,34.20
2023-08-29T15:51:07.226Z,35.60
2023-08-29T15:53:56.944Z,35.70
2023-08-29T15:56:45.418Z,37.00
2023-08-29T15:59:33.823Z,37.40
2023-08-29T16:02:22.131Z,37.60
2023-08-29T16:05:11.026Z,38.00
2023-08-29T16:07:59.327Z,37.50
2023-08-29T16:10:49.055Z,36.20
2023-08-29T16:13:37.396Z,36.50
2023-08-29T16:16:25.870Z,35.90
2023-08-29T16:19:14.356Z,36.00
2023-08-29T16:22:02.761Z,37.20
2023-08-29T16:24:54.863Z,37.70
2023-08-29T16:27:44.602Z,37.40
2023-08-29T16:30:33.012Z,38.10
2023-08-29T16:33:21.359Z,37.10
2023-08-29T16:36:09.718Z,37.50
2023-08-29T16:38:58.077Z,38.00
2023-08-29T16:41:46.470Z,37.70
2023-08-29T16:44:36.452Z,37.30
2023-08-29T16:47:24.813Z,37.50
2023-08-29T16:50:13.337Z,37.90
2023-08-29T16:53:01.664Z,37.90
2023-08-29T16:55:51.037Z,39.00
2023-08-29T16:58:39.464Z,38.40
2023-08-29T17:01:29.212Z,38.80
2023-08-29T17:04:17.650Z,38.70
2023-08-29T17:07:06.153Z,40.40
2023-08-29T17:09:54.452Z,41.20
2023-08-29T17:12:42.899Z,41.80
2023-08-29T17:15:31.274Z,41.30
2023-08-29T17:18:21.172Z,40.20
2023-08-29T17:21:09.531Z,38.80
2023-08-29T17:23:57.855Z,39.80
2023-08-29T17:26:46.206Z,41.70
2023-08-29T17:29:34.647Z,41.80
2023-08-29T17:32:23.045Z,44.00
2023-08-29T17:35:12.785Z,43.50
2023-08-29T17:38:01.161Z,43.40
2023-08-29T17:40:49.556Z,43.20
2023-08-29T17:43:38.207Z,44.20
2023-08-29T17:46:26.632Z,43.80
2023-08-29T17:49:15.107Z,44.20
2023-08-29T17:52:05.098Z,44.10
2023-08-29T17:54:53.480Z,43.70
2023-08-29T17:57:42.058Z,43.10
2023-08-29T18:00:30.474Z,44.10
2023-08-29T18:03:18.957Z,45.20
2023-08-29T18:06:22.610Z,45.00
2023-08-29T18:09:15.309Z,44.70
2023-08-29T18:12:03.756Z,45.40
2023-08-29T18:14:52.134Z,45.90
2023-08-29T18:17:40.776Z,46.10
2023-08-29T18:20:29.395Z,46.20
2023-08-29T18:23:17.843Z,45.90
2023-08-29T18:26:07.975Z,44.80
2023-08-29T18:28:56.468Z,45.20
2023-08-29T18:31:44.921Z,44.10
2023-08-29T18:34:34.150Z,43.30
2023-08-29T18:37:22.591Z,44.60
2023-08-29T18:40:11.976Z,45.20
2023-08-29T18:43:03.613Z,44.70
2023-08-29T18:45:52.039Z,44.40
2023-08-29T18:48:40.444Z,43.70
2023-08-29T18:51:28.852Z,43.60
2023-08-29T18:54:17.198Z,43.10
2023-08-29T18:57:05.957Z,42.00
2023-08-29T18:59:55.658Z,42.00
2023-08-29T19:02:45.313Z,42.00
2023-08-29T19:05:36.450Z,39.60
2023-08-29T19:08:25.259Z,40.70
2023-08-29T19:11:15.947Z,41.60
2023-08-29T19:14:04.616Z,43.80
2023-08-29T19:16:54.661Z,45.30
2023-08-29T19:19:43.147Z,46.20
2023-08-29T19:22:32.442Z,45.60
2023-08-29T19:25:20.807Z,44.90
2023-08-29T19:28:09.773Z,43.90
2023-08-29T19:30:58.606Z,43.50
2023-08-29T19:33:48.597Z,43.60
2023-08-29T19:36:37.063Z,44.40
2023-08-29T19:39:25.582Z,44.40
2023-08-29T19:42:14.030Z,44.80
2023-08-29T19:45:02.412Z,45.70
2023-08-29T19:47:50.928Z,47.30
2023-08-29T19:50:40.704Z,46.30
2023-08-29T19:53:29.210Z,44.70
2023-08-29T19:56:18.905Z,43.60
2023-08-29T19:59:07.792Z,43.90
2023-08-29T20:01:56.156Z,44.80
2023-08-29T20:04:44.548Z,44.90
2023-08-29T20:07:34.659Z,44.30
2023-08-29T20:10:23.268Z,43.40
2023-08-29T20:13:11.590Z,44.10
2023-08-29T20:16:09.229Z,44.30
2023-08-29T20:18:57.678Z,44.90
2023-08-29T20:21:46.151Z,45.10
2023-08-29T20:24:36.171Z,45.10
2023-08-29T20:27:24.590Z,45.50
2023-08-29T20:30:14.005Z,46.30
2023-08-29T20:33:02.722Z,46.00
2023-08-29T20:35:51.163Z,45.80
2023-08-29T20:38:39.618Z,46.10
2023-08-29T20:41:29.420Z,46.10
2023-08-29T20:44:17.810Z,45.90
2023-08-29T20:47:06.441Z,45.20
2023-08-29T20:49:54.829Z,43.30
2023-08-29T20:52:43.288Z,42.80
2023-08-29T20:55:32.269Z,42.20
2023-08-29T20:58:22.383Z,41.40
2023-08-29T21:01:10.794Z,41.30
2023-08-29T21:03:59.310Z,41.30
2023-08-29T21:06:47.735Z,41.20
2023-08-29T21:09:36.059Z,42.00
2023-08-29T21:12:24.422Z,41.20
2023-08-29T21:15:14.106Z,41.30
2023-08-29T21:18:02.591Z,41.30
2023-08-29T21:20:53.120Z,41.30
2023-08-29T21:23:42.051Z,41.20
2023-08-29T21:26:30.798Z,41.00
2023-08-29T21:29:19.220Z,41.10
2023-08-29T21:32:09.145Z,41.60
2023-08-29T21:34:57.586Z,42.00
2023-08-29T21:37:45.953Z,41.60
2023-08-29T21:40:38.074Z,42.40
2023-08-29T21:43:26.428Z,42.00
2023-08-29T21:46:14.940Z,42.00
2023-08-29T21:49:04.917Z,42.50
2023-08-29T21:51:53.279Z,42.50
2023-08-29T21:54:41.669Z,43.00
2023-08-29T21:57:30.012Z,42.10
2023-08-29T22:00:19.082Z,40.90
2023-08-29T22:03:07.823Z,41.70
2023-08-29T22:05:57.616Z,42.80
2023-08-29T22:08:45.954Z,41.50
2023-08-29T22:11:34.322Z,42.20
2023-08-29T22:14:22.717Z,43.30
2023-08-29T22:17:11.189Z,44.60
2023-08-29T22:19:59.644Z,45.10
2023-08-29T22:22:51.310Z,45.50
2023-08-29T22:25:39.704Z,45.90
2023-08-29T22:28:28.126Z,44.90
2023-08-29T22:31:16.544Z,44.40
2023-08-29T22:34:05.435Z,44.30
2023-08-29T22:36:53.749Z,43.00
2023-08-29T22:39:43.643Z,42.60
2023-08-29T22:42:31.976Z,43.50
2023-08-29T22:45:20.464Z,42.80
2023-08-29T22:48:10.399Z,42.70
2023-08-29T22:51:01.267Z,43.20
2023-08-29T22:53:49.748Z,42.90
2023-08-29T22:56:39.504Z,43.80
2023-08-29T22:59:28.165Z,43.60
2023-08-29T23:02:16.501Z,45.20
2023-08-29T23:05:06.466Z,45.50
2023-08-29T23:07:54.762Z,46.10
2023-08-29T23:10:43.255Z,45.60
2023-08-29T23:13:33.149Z,45.30
2023-08-29T23:16:21.858Z,44.00
2023-08-29T23:19:10.232Z,44.90
2023-08-29T23:21:58.551Z,45.50
2023-08-29T23:24:46.891Z,45.40
2023-08-29T23:27:35.916Z,44.30
2023-08-29T23:30:25.679Z,44.20
2023-08-29T23:33:15.083Z,44.60
2023-08-29T23:36:03.445Z,43.60
2023-08-29T23:38:52.630Z,43.60
2023-08-29T23:41:40.970Z,44.70
2023-08-29T23:44:29.312Z,44.50
2023-08-29T23:47:18.999Z,44.70
2023-08-29T23:50:08.071Z,46.00
2023-08-29T23:52:56.489Z,46.30
2023-08-29T23:55:44.780Z,45.40
2023-08-29T23:58:33.117Z,45.30
